Terminal Aerodrome Forecast
Issued by NWS

Home | Current Version | Previous Version | Text Only | Print | Product List | Glossary On
Versions: 1 2 3 4 5 6 7 8 9 10 11 12 13 14
000
FTUS45 KABQ 031100
TAFTCC
TAF
KTCC 031134Z 0312/0412 25009KT P6SM SCT150
     FM031900 23012G22KT P6SM SCT100
     FM032100 22015G25KT P6SM VCTS BKN090CB
      TEMPO 0321/0324 VRB20G35KT -TSRA BKN060CB
     FM040000 20015G25KT P6SM VCSH BKN100
     FM040300 20010KT P6SM BKN100=

USA.gov is the U.S. government's official web portal to all federal, state and local government web resources and services.